createdAt,value
2023-02-18T00:00:29.177Z,11.80
2023-02-18T00:02:59.902Z,11.80
2023-02-18T00:05:34.206Z,11.80
2023-02-18T00:08:04.931Z,12.00
2023-02-18T00:10:36.177Z,11.70
2023-02-18T00:13:06.963Z,11.70
2023-02-18T00:15:41.267Z,11.60
2023-02-18T00:18:12.253Z,11.70
2023-02-18T00:20:43.016Z,11.70
2023-02-18T00:23:13.737Z,11.60
2023-02-18T00:25:46.368Z,11.60
2023-02-18T00:28:17.383Z,11.60
2023-02-18T00:30:50.711Z,11.60
2023-02-18T00:33:21.606Z,11.70
2023-02-18T00:35:53.629Z,11.60
2023-02-18T00:38:24.443Z,11.60
2023-02-18T00:40:55.284Z,11.60
2023-02-18T00:43:26.027Z,11.60
2023-02-18T00:45:59.683Z,11.60
2023-02-18T00:48:30.507Z,11.60
2023-02-18T00:51:02.409Z,11.50
2023-02-18T00:53:35.735Z,11.50
2023-02-18T00:56:08.775Z,11.50
2023-02-18T00:58:40.245Z,11.50
2023-02-18T01:01:14.390Z,11.60
2023-02-18T01:03:46.063Z,11.50
2023-02-18T01:06:17.316Z,11.50
2023-02-18T01:08:48.089Z,11.50
2023-02-18T01:11:19.968Z,11.50
2023-02-18T01:13:50.885Z,11.50
2023-02-18T01:16:24.518Z,11.50
2023-02-18T01:18:57.786Z,11.50
2023-02-18T01:21:28.568Z,11.50
2023-02-18T01:23:59.491Z,11.50
2023-02-18T01:26:30.342Z,11.50
2023-02-18T01:29:01.079Z,11.50
2023-02-18T01:31:34.497Z,11.50
2023-02-18T01:34:05.716Z,11.50
2023-02-18T01:36:36.583Z,11.50
2023-02-18T01:39:08.850Z,12.00
2023-02-18T01:41:39.624Z,11.50
2023-02-18T01:44:18.690Z,11.50
2023-02-18T01:46:52.151Z,11.50
2023-02-18T01:49:27.050Z,11.50
2023-02-18T01:52:02.828Z,11.50
2023-02-18T01:54:39.759Z,11.50
2023-02-18T01:57:14.249Z,11.40
2023-02-18T01:59:51.515Z,11.40
2023-02-18T02:02:31.308Z,11.40
2023-02-18T02:05:02.274Z,11.40
2023-02-18T02:07:34.661Z,11.40
2023-02-18T02:10:06.098Z,11.50
2023-02-18T02:12:48.813Z,11.50
2023-02-18T02:15:30.902Z,11.40
2023-02-18T02:18:34.600Z,11.40
2023-02-18T02:21:38.199Z,11.40
2023-02-18T02:24:32.085Z,11.50
2023-02-18T02:27:22.393Z,11.20
2023-02-18T02:30:18.394Z,11.40
2023-02-18T02:33:22.307Z,11.50
2023-02-18T02:35:59.466Z,11.50
2023-02-18T02:38:39.120Z,11.50
2023-02-18T02:41:25.387Z,11.40
2023-02-18T02:44:14.878Z,11.50
2023-02-18T02:46:50.051Z,11.40
2023-02-18T02:49:39.771Z,11.40
2023-02-18T02:52:20.278Z,11.50
2023-02-18T02:54:51.091Z,11.50
2023-02-18T02:57:50.724Z,11.40
2023-02-18T03:00:27.492Z,11.50
2023-02-18T03:03:21.025Z,11.50
2023-02-18T03:06:10.694Z,11.50
2023-02-18T03:08:54.914Z,11.50
2023-02-18T03:11:26.207Z,11.50
2023-02-18T03:14:08.502Z,11.50
2023-02-18T03:16:47.450Z,11.50
2023-02-18T03:19:27.228Z,11.50
2023-02-18T03:22:02.545Z,11.50
2023-02-18T03:24:45.446Z,11.50
2023-02-18T03:27:20.569Z,11.40
2023-02-18T03:29:58.038Z,11.40
2023-02-18T03:32:30.118Z,11.50
2023-02-18T03:35:04.738Z,11.40
2023-02-18T03:37:38.808Z,11.40
2023-02-18T03:40:16.350Z,11.40
2023-02-18T03:42:47.290Z,11.40
2023-02-18T03:45:18.380Z,11.40
2023-02-18T03:47:49.346Z,11.70
2023-02-18T03:50:20.578Z,11.40
2023-02-18T03:52:51.593Z,11.40
2023-02-18T03:55:24.997Z,11.00
2023-02-18T03:57:59.057Z,11.40
2023-02-18T04:00:29.959Z,11.40
2023-02-18T04:03:01.004Z,11.50
2023-02-18T04:05:34.486Z,11.30
2023-02-18T04:08:05.717Z,11.40
2023-02-18T04:10:39.212Z,11.30
2023-02-18T04:13:10.102Z,11.30
2023-02-18T04:15:40.949Z,11.30
2023-02-18T04:18:11.867Z,11.30
2023-02-18T04:20:46.305Z,11.30
2023-02-18T04:23:17.762Z,11.30
2023-02-18T04:25:53.274Z,11.30
2023-02-18T04:28:24.123Z,11.30
2023-02-18T04:30:54.902Z,11.20
2023-02-18T04:33:25.769Z,11.30
2023-02-18T04:35:59.789Z,11.30
2023-02-18T04:38:30.578Z,11.40
2023-02-18T04:41:04.059Z,11.30
2023-02-18T04:43:34.790Z,11.30
2023-02-18T04:46:06.171Z,11.30
2023-02-18T04:48:40.447Z,11.40
2023-02-18T04:51:11.315Z,11.80
2023-02-18T04:53:43.769Z,11.40
2023-02-18T04:56:24.586Z,11.40
2023-02-18T04:59:14.022Z,11.30
2023-02-18T05:01:55.354Z,11.30
2023-02-18T05:04:26.339Z,11.30
2023-02-18T05:06:57.866Z,11.30
2023-02-18T05:09:28.893Z,11.30
2023-02-18T05:12:02.653Z,11.30
2023-02-18T05:14:34.691Z,11.30
2023-02-18T05:17:08.098Z,11.20
2023-02-18T05:19:38.935Z,11.20
2023-02-18T05:22:09.792Z,11.20
2023-02-18T05:24:40.528Z,11.20
2023-02-18T05:27:13.917Z,11.20
2023-02-18T05:29:45.277Z,11.20
2023-02-18T05:32:16.150Z,11.10
2023-02-18T05:34:46.981Z,11.20
2023-02-18T05:37:18.715Z,11.20
2023-02-18T05:39:49.817Z,11.20
2023-02-18T05:42:23.622Z,11.20
2023-02-18T05:44:54.425Z,11.20
2023-02-18T05:47:25.371Z,11.20
2023-02-18T05:49:56.222Z,11.10
2023-02-18T05:52:27.082Z,11.10
2023-02-18T05:54:57.992Z,11.10
2023-02-18T05:57:31.364Z,11.40
2023-02-18T06:00:09.326Z,11.10
2023-02-18T06:02:42.994Z,11.20
2023-02-18T06:05:16.403Z,11.00
2023-02-18T06:07:47.312Z,11.10
2023-02-18T06:10:21.327Z,11.00
2023-02-18T06:12:54.662Z,11.00
2023-02-18T06:15:25.397Z,11.00
2023-02-18T06:17:57.069Z,11.00
2023-02-18T06:20:27.801Z,11.00
2023-02-18T06:22:58.607Z,11.00
2023-02-18T06:25:29.366Z,11.00
2023-02-18T06:28:06.014Z,11.00
2023-02-18T06:30:36.996Z,11.00
2023-02-18T06:33:07.952Z,11.00
2023-02-18T06:35:39.845Z,11.00
2023-02-18T06:38:17.981Z,11.00
2023-02-18T06:40:50.226Z,11.00
2023-02-18T06:43:24.328Z,11.10
2023-02-18T06:45:57.760Z,11.00
2023-02-18T06:48:31.422Z,10.90
2023-02-18T06:51:02.713Z,10.90
2023-02-18T06:53:33.432Z,10.90
2023-02-18T06:56:04.130Z,10.80
2023-02-18T06:58:37.646Z,10.90
2023-02-18T07:01:08.501Z,10.90
2023-02-18T07:03:39.456Z,10.90
2023-02-18T07:06:10.840Z,10.90
2023-02-18T07:08:45.048Z,10.90
2023-02-18T07:11:15.786Z,10.90
2023-02-18T07:13:49.283Z,10.90
2023-02-18T07:16:40.829Z,10.90
2023-02-18T07:19:12.833Z,10.80
2023-02-18T07:21:44.952Z,10.90
2023-02-18T07:24:15.750Z,10.90
2023-02-18T07:26:46.764Z,10.90
2023-02-18T07:29:23.706Z,10.90
2023-02-18T07:31:54.522Z,10.90
2023-02-18T07:34:25.270Z,10.90
2023-02-18T07:36:56.006Z,10.90
2023-02-18T07:39:27.112Z,10.90
2023-02-18T07:41:58.539Z,10.90
2023-02-18T07:44:32.233Z,10.90
2023-02-18T07:47:02.998Z,10.90
2023-02-18T07:49:33.994Z,10.90
2023-02-18T07:52:05.637Z,10.90
2023-02-18T07:54:42.190Z,10.90
2023-02-18T07:57:12.977Z,10.90
2023-02-18T07:59:48.444Z,10.90
2023-02-18T08:02:25.480Z,10.80
2023-02-18T08:04:59.102Z,10.80
2023-02-18T08:07:29.920Z,10.80
2023-02-18T08:10:03.570Z,10.80
2023-02-18T08:12:34.475Z,10.60
2023-02-18T08:15:08.734Z,10.90
2023-02-18T08:17:39.512Z,10.90
2023-02-18T08:20:11.314Z,10.90
2023-02-18T08:22:44.619Z,10.90
2023-02-18T08:25:27.668Z,10.80
2023-02-18T08:28:00.380Z,10.90
2023-02-18T08:30:36.765Z,10.90
2023-02-18T08:33:07.594Z,10.90
2023-02-18T08:35:38.406Z,10.90
2023-02-18T08:38:09.128Z,10.90
2023-02-18T08:40:40.902Z,10.90
2023-02-18T08:43:12.249Z,10.80
2023-02-18T08:45:46.763Z,10.90
2023-02-18T08:48:20.422Z,10.90
2023-02-18T08:50:51.550Z,10.90
2023-02-18T08:53:22.564Z,10.90
2023-02-18T08:55:53.495Z,11.00
2023-02-18T08:58:24.686Z,11.00
2023-02-18T09:00:58.125Z,11.30
2023-02-18T09:03:29.026Z,11.00
2023-02-18T09:06:00.197Z,10.90
2023-02-18T09:08:32.209Z,10.80
2023-02-18T09:11:08.301Z,10.70
2023-02-18T09:13:39.371Z,10.60
2023-02-18T09:16:15.775Z,10.50
2023-02-18T09:18:47.292Z,10.50
2023-02-18T09:21:20.821Z,10.60
2023-02-18T09:23:51.916Z,10.60
2023-02-18T09:26:26.290Z,10.60
2023-02-18T09:28:59.217Z,10.50
2023-02-18T09:31:35.922Z,10.60
2023-02-18T09:34:10.200Z,10.60
2023-02-18T09:36:42.191Z,10.60
2023-02-18T09:39:13.992Z,10.60
2023-02-18T09:41:46.498Z,10.60
2023-02-18T09:44:22.470Z,10.60
2023-02-18T09:47:01.902Z,10.50
2023-02-18T09:49:36.729Z,10.60
2023-02-18T09:52:15.385Z,10.60
2023-02-18T09:54:46.226Z,10.60
2023-02-18T09:57:25.500Z,10.50
2023-02-18T10:00:04.930Z,10.50
2023-02-18T10:02:42.366Z,10.50
2023-02-18T10:05:18.122Z,10.50
2023-02-18T10:07:51.216Z,10.50
2023-02-18T10:10:27.033Z,10.50
2023-02-18T10:12:59.518Z,10.50
2023-02-18T10:15:33.173Z,10.50
2023-02-18T10:18:08.834Z,10.50
2023-02-18T10:20:39.686Z,10.50
2023-02-18T10:23:13.127Z,10.50
2023-02-18T10:25:51.381Z,10.50
2023-02-18T10:28:26.525Z,10.50
2023-02-18T10:31:03.587Z,10.50
2023-02-18T10:33:48.620Z,10.40
2023-02-18T10:36:27.571Z,10.50
2023-02-18T10:43:06.785Z,10.40
2023-02-18T10:45:45.244Z,10.40
2023-02-18T10:48:53.888Z,10.40
2023-02-18T10:51:28.389Z,10.40
2023-02-18T10:53:59.460Z,10.40
2023-02-18T10:56:38.128Z,10.40
2023-02-18T10:59:23.244Z,10.40
2023-02-18T11:01:59.279Z,10.50
2023-02-18T11:04:39.683Z,10.50
2023-02-18T11:07:18.129Z,10.50
2023-02-18T11:09:51.719Z,10.50
2023-02-18T11:12:26.008Z,10.50
2023-02-18T11:15:20.284Z,10.40
2023-02-18T11:17:54.004Z,10.40
2023-02-18T11:20:35.421Z,10.40
2023-02-18T11:23:20.600Z,10.40
2023-02-18T11:26:01.266Z,10.50
2023-02-18T11:28:45.224Z,10.50
2023-02-18T11:31:24.941Z,10.50
2023-02-18T11:34:00.885Z,10.40
2023-02-18T11:36:36.155Z,10.40
2023-02-18T11:39:11.850Z,10.40
2023-02-18T11:41:45.203Z,10.40
2023-02-18T11:44:24.830Z,10.30
2023-02-18T11:47:04.770Z,10.30
2023-02-18T11:49:37.629Z,10.30
2023-02-18T11:52:20.839Z,10.10
2023-02-18T11:55:04.740Z,10.40
2023-02-18T11:57:51.580Z,10.40
2023-02-18T12:00:26.869Z,10.40
2023-02-18T12:03:02.184Z,10.40
2023-02-18T12:05:35.582Z,10.40
2023-02-18T12:08:17.211Z,10.90
2023-02-18T12:10:51.320Z,10.40
2023-02-18T12:13:28.354Z,10.50
2023-02-18T12:16:12.040Z,10.40
2023-02-18T12:19:17.605Z,10.40
2023-02-18T12:22:15.508Z,10.50
2023-02-18T12:25:06.705Z,10.30
2023-02-18T12:27:43.577Z,10.60
2023-02-18T12:30:35.308Z,10.60
2023-02-18T12:33:15.268Z,10.60
2023-02-18T12:36:02.749Z,10.60
2023-02-18T12:38:57.095Z,10.60
2023-02-18T12:41:58.567Z,10.50
2023-02-18T12:44:38.816Z,10.60
2023-02-18T12:47:39.459Z,10.60
2023-02-18T12:50:36.515Z,10.60
2023-02-18T12:53:29.608Z,10.60
2023-02-18T12:56:28.244Z,10.50
2023-02-18T12:59:07.838Z,10.50
2023-02-18T13:01:49.313Z,10.50
2023-02-18T13:04:47.525Z,10.50
2023-02-18T13:07:42.888Z,10.50
2023-02-18T13:10:52.873Z,10.60
2023-02-18T13:13:26.545Z,10.60
2023-02-18T13:16:07.068Z,10.50
2023-02-18T13:18:40.631Z,10.50
2023-02-18T13:21:15.026Z,10.50
2023-02-18T13:23:52.388Z,10.50
2023-02-18T13:26:27.729Z,10.50
2023-02-18T13:29:18.932Z,10.60
2023-02-18T13:32:04.287Z,10.60
2023-02-18T13:34:39.617Z,10.60
2023-02-18T13:37:19.177Z,10.90
2023-02-18T13:39:54.476Z,10.70
2023-02-18T13:42:30.375Z,10.70
2023-02-18T13:45:28.495Z,10.70
2023-02-18T13:48:02.405Z,10.70
2023-02-18T13:50:42.824Z,10.70
2023-02-18T13:53:56.003Z,10.90
2023-02-18T13:56:32.478Z,10.80
2023-02-18T13:59:10.684Z,10.80
2023-02-18T14:01:44.473Z,10.80
2023-02-18T14:04:45.421Z,10.70
2023-02-18T14:07:47.747Z,10.70
2023-02-18T14:11:01.057Z,10.70
2023-02-18T14:13:43.279Z,10.70
2023-02-18T14:16:17.269Z,10.70
2023-02-18T14:19:03.166Z,10.70
2023-02-18T14:21:45.355Z,10.80
2023-02-18T14:24:50.489Z,10.80
2023-02-18T14:27:21.619Z,10.80
2023-02-18T14:29:55.030Z,10.80
2023-02-18T14:32:26.593Z,10.80
2023-02-18T14:35:20.478Z,10.80
2023-02-18T14:38:15.619Z,10.90
2023-02-18T14:41:07.477Z,10.90
2023-02-18T14:43:55.078Z,10.90
2023-02-18T14:46:37.632Z,10.90
2023-02-18T14:49:34.348Z,10.90
2023-02-18T14:52:07.182Z,10.90
2023-02-18T14:54:41.443Z,10.90
2023-02-18T14:57:20.358Z,10.90
2023-02-18T14:59:51.545Z,10.90
2023-02-18T15:02:28.455Z,10.90
2023-02-18T15:05:14.996Z,10.90
2023-02-18T15:07:56.989Z,10.90
2023-02-18T15:10:33.503Z,10.90
2023-02-18T15:13:10.222Z,10.90
2023-02-18T15:15:41.249Z,11.00
2023-02-18T15:18:20.213Z,11.00
2023-02-18T15:20:51.389Z,11.00
2023-02-18T15:23:22.234Z,10.90
2023-02-18T15:25:55.418Z,10.90
2023-02-18T15:28:31.660Z,10.90
2023-02-18T15:31:04.184Z,11.00
2023-02-18T15:33:35.022Z,11.00
2023-02-18T15:36:17.235Z,11.00
2023-02-18T15:38:48.041Z,11.00
2023-02-18T15:41:22.735Z,11.00
2023-02-18T15:44:06.173Z,11.00
2023-02-18T15:46:37.803Z,11.00
2023-02-18T15:49:13.017Z,11.10
2023-02-18T15:51:46.238Z,11.10
2023-02-18T15:54:25.960Z,11.10
2023-02-18T15:56:59.158Z,11.10
2023-02-18T15:59:35.868Z,11.10
2023-02-18T16:02:18.991Z,11.10
2023-02-18T16:04:52.938Z,11.10
2023-02-18T16:07:26.971Z,11.10
2023-02-18T16:10:18.914Z,11.10
2023-02-18T16:12:54.061Z,11.10
2023-02-18T16:15:32.762Z,11.10
2023-02-18T16:18:22.118Z,11.10
2023-02-18T16:20:59.961Z,11.10
2023-02-18T16:23:38.632Z,11.10
2023-02-18T16:26:21.600Z,11.10
2023-02-18T16:28:55.480Z,11.10
2023-02-18T16:31:34.569Z,11.10
2023-02-18T16:34:05.750Z,11.00
2023-02-18T16:36:59.500Z,11.00
2023-02-18T16:39:31.225Z,11.00
2023-02-18T16:44:48.257Z,11.10
2023-02-18T16:47:23.047Z,11.10
2023-02-18T16:49:55.250Z,11.10
2023-02-18T16:52:25.975Z,11.10
2023-02-18T16:54:58.693Z,11.10
2023-02-18T16:57:29.612Z,11.10
2023-02-18T17:00:04.096Z,11.10
2023-02-18T17:02:39.655Z,11.10
2023-02-18T17:05:25.440Z,11.10
2023-02-18T17:07:58.299Z,11.20
2023-02-18T17:10:29.216Z,11.10
2023-02-18T17:12:59.949Z,11.10
2023-02-18T17:15:38.017Z,11.10
2023-02-18T17:21:09.178Z,11.10
2023-02-18T17:23:43.940Z,11.10
2023-02-18T17:26:21.363Z,11.10
2023-02-18T17:28:55.593Z,11.10
2023-02-18T17:31:28.730Z,11.10
2023-02-18T17:34:08.178Z,11.10
2023-02-18T17:36:39.617Z,11.10
2023-02-18T17:39:15.420Z,11.10
2023-02-18T17:41:46.351Z,11.10
2023-02-18T17:44:22.183Z,11.10
2023-02-18T17:46:54.877Z,11.10
2023-02-18T17:49:28.251Z,11.10
2023-02-18T17:51:59.222Z,11.10
2023-02-18T17:54:30.093Z,11.20
2023-02-18T17:57:00.829Z,11.20
2023-02-18T17:59:31.748Z,11.20
2023-02-18T18:02:02.903Z,11.10
2023-02-18T18:04:36.417Z,11.10
2023-02-18T18:07:10.177Z,11.10
2023-02-18T18:09:41.005Z,11.10
2023-02-18T18:12:16.605Z,11.10
2023-02-18T18:14:50.259Z,11.10
2023-02-18T18:17:20.990Z,11.10
2023-02-18T18:19:54.342Z,11.10
2023-02-18T18:22:25.261Z,11.10
2023-02-18T18:24:56.118Z,11.10
2023-02-18T18:27:29.901Z,11.10
2023-02-18T18:30:04.965Z,11.10
2023-02-18T18:32:35.883Z,11.20
